Time;durP1;ratioP1;P1;durP2;ratioP2;P2;SDS_P1;SDS_P2;PMS_P1;PMS_P2;Temp;Humidity;BMP_temperature;BMP_pressure;BME280_temperature;BME280_humidity;BME280_pressure;Samples;Min_cycle;Max_cycle;Signal;HPM_P1;HPM_P2
2022/11/26 00:01:00;;;;;;;32.47;5.38;;;;;;;;;;5041077;28;20053;-76
2022/11/26 00:03:27;;;;;;;31.38;5.53;;;;;;;;;;5039336;28;20141;-76
2022/11/26 00:05:56;;;;;;;28.15;5.68;;;;;;;;;;5038395;28;20830;-76
2022/11/26 00:08:27;;;;;;;35.67;5.50;;;;;;;;;;5046368;28;20140;-75
2022/11/26 00:10:54;;;;;;;35.05;5.75;;;;;;;;;;5045849;28;20523;-76
2022/11/26 00:13:27;;;;;;;29.35;6.00;;;;;;;;;;5044964;28;20045;-76
2022/11/26 00:15:54;;;;;;;32.95;6.30;;;;;;;;;;5043431;28;20080;-76
2022/11/26 00:18:25;;;;;;;26.67;5.75;;;;;;;;;;5038199;28;20054;-75
2022/11/26 00:20:54;;;;;;;41.35;6.20;;;;;;;;;;5039787;28;20050;-76
2022/11/26 00:23:26;;;;;;;33.38;6.20;;;;;;;;;;5046339;28;20136;-76
2022/11/26 00:25:55;;;;;;;35.75;5.97;;;;;;;;;;5043954;28;21807;-76
2022/11/26 00:28:36;;;;;;;43.60;6.70;;;;;;;;;;5045822;28;20527;-75
2022/11/26 00:31:11;;;;;;;22.35;5.22;;;;;;;;;;5044556;28;20060;-76
2022/11/26 00:33:38;;;;;;;35.47;5.55;;;;;;;;;;5046420;28;20506;-76
2022/11/26 00:36:24;;;;;;;33.40;6.15;;;;;;;;;;5046559;28;20061;-75
2022/11/26 00:39:05;;;;;;;37.20;6.25;;;;;;;;;;5047418;28;20507;-75
2022/11/26 00:41:37;;;;;;;20.20;5.38;;;;;;;;;;5042337;28;20916;-75
2022/11/26 00:44:15;;;;;;;34.28;6.28;;;;;;;;;;5061186;28;20131;-75
2022/11/26 00:46:42;;;;;;;27.58;5.70;;;;;;;;;;5043527;28;20164;-75
2022/11/26 00:49:09;;;;;;;24.67;6.40;;;;;;;;;;5042367;28;20127;-75
2022/11/26 00:51:37;;;;;;;39.55;6.32;;;;;;;;;;5036264;28;20128;-75
2022/11/26 00:54:05;;;;;;;45.55;6.88;;;;;;;;;;5042905;28;20054;-76
2022/11/26 00:56:32;;;;;;;35.17;7.13;;;;;;;;;;5042878;28;20511;-75
2022/11/26 00:59:04;;;;;;;39.10;6.30;;;;;;;;;;5054023;28;20057;-76
2022/11/26 01:01:32;;;;;;;43.13;6.47;;;;;;;;;;5043969;28;20060;-76
2022/11/26 01:03:59;;;;;;;36.55;6.22;;;;;;;;;;5035489;28;20050;-75
2022/11/26 01:06:32;;;;;;;20.08;5.68;;;;;;;;;;5038099;28;20061;-75
2022/11/26 01:08:59;;;;;;;31.85;5.43;;;;;;;;;;5044383;28;20066;-76
2022/11/26 01:11:26;;;;;;;29.70;5.72;;;;;;;;;;5041535;28;20128;-75
2022/11/26 01:13:54;;;;;;;28.75;5.90;;;;;;;;;;5040257;28;20049;-75
2022/11/26 01:16:24;;;;;;;26.63;5.57;;;;;;;;;;5045574;28;20053;-76
2022/11/26 01:18:53;;;;;;;19.23;5.15;;;;;;;;;;5041940;28;20064;-75
2022/11/26 01:21:20;;;;;;;34.15;6.45;;;;;;;;;;5040147;28;20152;-76
2022/11/26 01:23:48;;;;;;;25.23;5.60;;;;;;;;;;5042551;28;20053;-76
2022/11/26 01:26:19;;;;;;;31.25;5.50;;;;;;;;;;5045953;28;20482;-76
2022/11/26 01:28:46;;;;;;;32.42;5.93;;;;;;;;;;5034609;28;20060;-76
2022/11/26 01:31:18;;;;;;;20.67;6.03;;;;;;;;;;5037005;28;20053;-76
2022/11/26 01:33:45;;;;;;;20.83;5.80;;;;;;;;;;5045840;28;20044;-76
2022/11/26 01:36:33;;;;;;;25.50;6.63;;;;;;;;;;5044729;28;20049;-75
2022/11/26 01:39:03;;;;;;;31.63;6.88;;;;;;;;;;5045105;28;20131;-76
2022/11/26 01:41:51;;;;;;;40.50;6.97;;;;;;;;;;5041630;28;20050;-76
2022/11/26 01:44:24;;;;;;;17.92;5.90;;;;;;;;;;5036951;28;20049;-76
2022/11/26 01:46:51;;;;;;;38.35;7.63;;;;;;;;;;5043809;28;20053;-76
2022/11/26 01:49:24;;;;;;;27.83;7.68;;;;;;;;;;5045931;28;20129;-75
2022/11/26 01:52:11;;;;;;;34.40;7.28;;;;;;;;;;5040769;28;20431;-76
2022/11/26 01:54:44;;;;;;;21.95;6.57;;;;;;;;;;5042446;28;20416;-76
2022/11/26 01:57:23;;;;;;;36.67;7.82;;;;;;;;;;5042289;28;20050;-76
2022/11/26 01:59:55;;;;;;;38.42;8.40;;;;;;;;;;5043779;28;20085;-76
2022/11/26 02:02:23;;;;;;;46.72;7.60;;;;;;;;;;5037282;28;20054;-76
2022/11/26 02:04:59;;;;;;;27.38;7.25;;;;;;;;;;5044715;28;20060;-76
2022/11/26 02:07:27;;;;;;;32.45;7.90;;;;;;;;;;5045047;28;20841;-76
2022/11/26 02:09:54;;;;;;;35.20;9.10;;;;;;;;;;5044464;28;20129;-75
2022/11/26 02:12:22;;;;;;;50.70;8.93;;;;;;;;;;5043089;28;20096;-76
2022/11/26 02:14:49;;;;;;;35.28;8.52;;;;;;;;;;5035663;28;20126;-75
2022/11/26 02:17:19;;;;;;;42.42;9.23;;;;;;;;;;5042914;28;20522;-76
2022/11/26 02:20:07;;;;;;;35.15;9.40;;;;;;;;;;5038804;28;20084;-76
2022/11/26 02:22:50;;;;;;;41.92;9.23;;;;;;;;;;5031333;28;20681;-75
2022/11/26 02:25:17;;;;;;;33.50;8.88;;;;;;;;;;5043791;28;20507;-76
2022/11/26 02:28:00;;;;;;;40.60;9.45;;;;;;;;;;5040813;28;20056;-76
2022/11/26 02:30:28;;;;;;;45.65;9.30;;;;;;;;;;5035853;28;20101;-75
2022/11/26 02:32:57;;;;;;;36.88;9.43;;;;;;;;;;5036412;28;20046;-75
2022/11/26 02:35:46;;;;;;;42.08;9.10;;;;;;;;;;5039943;28;20057;-76
2022/11/26 02:38:17;;;;;;;45.35;9.40;;;;;;;;;;5046382;28;20525;-75
2022/11/26 02:40:44;;;;;;;46.05;9.70;;;;;;;;;;5047524;28;20534;-75
2022/11/26 02:43:13;;;;;;;37.60;9.38;;;;;;;;;;5031325;28;20105;-76
2022/11/26 02:45:42;;;;;;;42.65;9.15;;;;;;;;;;5038911;28;20053;-76
2022/11/26 02:48:13;;;;;;;42.03;9.63;;;;;;;;;;5044209;28;20059;-76
2022/11/26 02:50:52;;;;;;;43.53;8.98;;;;;;;;;;5045491;28;20052;-75
2022/11/26 02:53:21;;;;;;;39.17;9.02;;;;;;;;;;5039429;28;20057;-76
2022/11/26 02:55:52;;;;;;;45.95;9.75;;;;;;;;;;5037594;28;20818;-76
2022/11/26 02:58:20;;;;;;;43.85;9.75;;;;;;;;;;5042221;28;20057;-75
2022/11/26 03:00:48;;;;;;;51.25;10.55;;;;;;;;;;5039562;28;20107;-76
2022/11/26 03:03:22;;;;;;;32.88;9.20;;;;;;;;;;5040430;28;20855;-76
2022/11/26 03:05:52;;;;;;;31.90;9.02;;;;;;;;;;5047069;28;20132;-76
2022/11/26 03:08:19;;;;;;;56.13;10.32;;;;;;;;;;5038456;28;20057;-76
2022/11/26 03:10:47;;;;;;;42.63;9.60;;;;;;;;;;5035333;28;20056;-76
2022/11/26 03:13:17;;;;;;;55.10;10.23;;;;;;;;;;5040243;28;20065;-75
2022/11/26 03:15:44;;;;;;;50.03;10.80;;;;;;;;;;5033489;28;20104;-76
2022/11/26 03:18:11;;;;;;;42.42;9.88;;;;;;;;;;5044705;28;20868;-76
2022/11/26 03:20:38;;;;;;;38.47;8.93;;;;;;;;;;5038069;28;20054;-76
2022/11/26 03:23:06;;;;;;;35.67;8.75;;;;;;;;;;5043458;28;20041;-76
2022/11/26 03:25:34;;;;;;;35.25;9.27;;;;;;;;;;5042878;28;20120;-75
2022/11/26 03:28:02;;;;;;;53.00;9.65;;;;;;;;;;5041242;28;20050;-76
2022/11/26 03:30:29;;;;;;;40.35;9.45;;;;;;;;;;5041282;28;20054;-75
2022/11/26 03:32:57;;;;;;;35.50;9.15;;;;;;;;;;5042268;28;20416;-75
2022/11/26 03:35:24;;;;;;;30.40;8.60;;;;;;;;;;5041953;28;20049;-76
2022/11/26 03:37:52;;;;;;;45.67;8.85;;;;;;;;;;5046523;28;20057;-76
2022/11/26 03:40:19;;;;;;;35.78;8.23;;;;;;;;;;5048003;28;20055;-75
2022/11/26 03:42:46;;;;;;;33.63;8.70;;;;;;;;;;5039772;28;20503;-76
2022/11/26 03:45:14;;;;;;;30.60;9.20;;;;;;;;;;5049317;28;20054;-76
2022/11/26 03:47:41;;;;;;;40.42;8.25;;;;;;;;;;5045804;28;20053;-75
2022/11/26 03:50:12;;;;;;;20.20;8.48;;;;;;;;;;5045179;28;20056;-76
2022/11/26 03:52:39;;;;;;;37.17;9.55;;;;;;;;;;5044523;28;20061;-75
2022/11/26 03:55:07;;;;;;;35.95;9.77;;;;;;;;;;5045846;28;20050;-76
2022/11/26 03:57:36;;;;;;;35.67;9.25;;;;;;;;;;5042279;28;20555;-76
2022/11/26 04:00:05;;;;;;;33.22;7.93;;;;;;;;;;5038727;28;20137;-75
2022/11/26 04:02:32;;;;;;;40.13;8.70;;;;;;;;;;5042584;28;20107;-76
2022/11/26 04:04:59;;;;;;;47.58;8.90;;;;;;;;;;5038988;28;20087;-76
2022/11/26 04:07:27;;;;;;;33.20;8.40;;;;;;;;;;5046255;28;20725;-78
2022/11/26 04:09:54;;;;;;;35.67;8.50;;;;;;;;;;5043603;28;20053;-76
2022/11/26 04:12:21;;;;;;;39.70;9.88;;;;;;;;;;5045380;28;20060;-76
2022/11/26 04:14:48;;;;;;;47.33;9.38;;;;;;;;;;5042272;28;20048;-76
2022/11/26 04:17:16;;;;;;;33.75;9.05;;;;;;;;;;5039460;28;20053;-75
2022/11/26 04:19:43;;;;;;;41.40;9.32;;;;;;;;;;5044811;28;20049;-76
2022/11/26 04:22:11;;;;;;;53.92;10.38;;;;;;;;;;5043317;28;20749;-76
2022/11/26 04:24:38;;;;;;;31.30;8.43;;;;;;;;;;5043363;28;21415;-76
2022/11/26 04:27:06;;;;;;;43.95;10.35;;;;;;;;;;5044390;28;20054;-76
2022/11/26 04:29:36;;;;;;;48.65;10.55;;;;;;;;;;5035781;28;20503;-75
2022/11/26 04:32:04;;;;;;;45.55;9.95;;;;;;;;;;5046735;28;20467;-75
2022/11/26 04:34:31;;;;;;;58.65;10.77;;;;;;;;;;5041812;28;20053;-76
2022/11/26 04:36:59;;;;;;;45.83;9.52;;;;;;;;;;5040218;28;20063;-76
2022/11/26 04:39:27;;;;;;;44.63;9.60;;;;;;;;;;5046622;28;20050;-75
2022/11/26 04:41:54;;;;;;;35.53;9.13;;;;;;;;;;5046832;28;20060;-76
2022/11/26 04:44:21;;;;;;;39.25;9.32;;;;;;;;;;5044191;28;20597;-76
2022/11/26 04:46:49;;;;;;;35.90;9.18;;;;;;;;;;5039126;28;20104;-75
2022/11/26 04:49:19;;;;;;;41.80;9.55;;;;;;;;;;5039111;28;20523;-76
2022/11/26 04:51:46;;;;;;;36.63;9.75;;;;;;;;;;5045728;28;20053;-76
2022/11/26 04:54:13;;;;;;;36.10;9.55;;;;;;;;;;5040121;28;20061;-76
2022/11/26 04:56:41;;;;;;;37.70;9.63;;;;;;;;;;5046243;28;20050;-76
2022/11/26 04:59:11;;;;;;;39.25;10.77;;;;;;;;;;5043853;28;20050;-76
2022/11/26 05:01:38;;;;;;;44.55;10.90;;;;;;;;;;5037250;28;20054;-76
2022/11/26 05:04:05;;;;;;;44.20;9.40;;;;;;;;;;5035561;28;20056;-76
2022/11/26 05:06:32;;;;;;;37.67;9.45;;;;;;;;;;5044763;28;20056;-76
2022/11/26 05:09:00;;;;;;;37.67;11.10;;;;;;;;;;5041239;28;20112;-76
2022/11/26 05:11:28;;;;;;;34.60;9.73;;;;;;;;;;5029635;28;20053;-76
2022/11/26 05:13:55;;;;;;;35.92;9.45;;;;;;;;;;5038076;28;20057;-76
2022/11/26 05:16:23;;;;;;;27.85;9.18;;;;;;;;;;5046702;28;20049;-75
2022/11/26 05:18:50;;;;;;;54.47;9.95;;;;;;;;;;5040657;28;20053;-76
2022/11/26 05:21:17;;;;;;;40.08;9.73;;;;;;;;;;5040731;28;20053;-76
2022/11/26 05:23:45;;;;;;;41.67;9.45;;;;;;;;;;5045331;28;20488;-75
2022/11/26 05:26:12;;;;;;;35.78;9.85;;;;;;;;;;5046179;28;20057;-75
2022/11/26 05:28:39;;;;;;;38.53;9.50;;;;;;;;;;5044482;28;20064;-76
2022/11/26 05:31:07;;;;;;;38.67;9.95;;;;;;;;;;5042754;28;20046;-76
2022/11/26 05:33:34;;;;;;;38.40;8.52;;;;;;;;;;5044014;28;20483;-76
2022/11/26 05:36:02;;;;;;;37.97;9.38;;;;;;;;;;5044492;28;20065;-76
2022/11/26 05:38:29;;;;;;;45.65;10.23;;;;;;;;;;5044477;28;20057;-75
2022/11/26 05:40:56;;;;;;;38.20;9.20;;;;;;;;;;5042748;28;20499;-76
2022/11/26 05:43:23;;;;;;;37.53;9.45;;;;;;;;;;5039670;28;20108;-76
2022/11/26 05:45:51;;;;;;;42.25;9.88;;;;;;;;;;5040698;28;20525;-75
2022/11/26 05:48:18;;;;;;;42.22;9.80;;;;;;;;;;5039471;28;20812;-75
2022/11/26 05:50:45;;;;;;;41.30;9.43;;;;;;;;;;5043537;28;20459;-76
2022/11/26 05:53:20;;;;;;;34.85;10.15;;;;;;;;;;5033160;28;20157;-75
2022/11/26 05:55:47;;;;;;;36.10;10.30;;;;;;;;;;5045246;28;20964;-76
2022/11/26 05:58:18;;;;;;;41.97;11.13;;;;;;;;;;5044589;28;20049;-75
2022/11/26 06:00:45;;;;;;;57.88;11.68;;;;;;;;;;5043577;28;20840;-76
2022/11/26 06:03:12;;;;;;;43.85;10.23;;;;;;;;;;5045032;28;20053;-76
2022/11/26 06:05:46;;;;;;;32.88;9.77;;;;;;;;;;5044997;28;20053;-76
2022/11/26 06:08:13;;;;;;;40.63;10.43;;;;;;;;;;5037550;28;20056;-75
2022/11/26 06:10:41;;;;;;;41.75;10.70;;;;;;;;;;5037921;28;23155;-76
2022/11/26 06:13:10;;;;;;;50.72;11.70;;;;;;;;;;5048673;28;20103;-75
2022/11/26 06:15:39;;;;;;;43.83;11.05;;;;;;;;;;5039875;28;20060;-75
2022/11/26 06:18:06;;;;;;;48.53;12.45;;;;;;;;;;5044627;28;20179;-75
2022/11/26 06:20:34;;;;;;;51.78;11.77;;;;;;;;;;5037996;28;20156;-75
2022/11/26 06:23:01;;;;;;;44.10;10.95;;;;;;;;;;5038745;28;20045;-76
2022/11/26 06:25:28;;;;;;;63.05;12.65;;;;;;;;;;5042097;28;20053;-76
2022/11/26 06:27:56;;;;;;;53.85;12.20;;;;;;;;;;5041592;28;20813;-76
2022/11/26 06:30:23;;;;;;;56.83;12.52;;;;;;;;;;5042998;28;20062;-75
2022/11/26 06:32:51;;;;;;;51.13;11.57;;;;;;;;;;5044293;28;20459;-76
2022/11/26 06:35:18;;;;;;;58.58;13.50;;;;;;;;;;5040292;28;20053;-76
2022/11/26 06:37:46;;;;;;;52.78;13.57;;;;;;;;;;5038484;28;20057;-76
2022/11/26 06:40:15;;;;;;;62.63;13.68;;;;;;;;;;5043880;28;20053;-76
2022/11/26 06:42:47;;;;;;;78.90;13.10;;;;;;;;;;5039117;28;20063;-76
2022/11/26 06:45:17;;;;;;;52.97;13.07;;;;;;;;;;5043030;28;20165;-76
2022/11/26 06:47:46;;;;;;;61.03;12.43;;;;;;;;;;5043182;28;20092;-76
2022/11/26 06:50:13;;;;;;;43.55;13.88;;;;;;;;;;5044494;28;20507;-76
2022/11/26 06:52:40;;;;;;;55.53;13.35;;;;;;;;;;5037153;28;20050;-76
2022/11/26 06:55:08;;;;;;;85.18;13.50;;;;;;;;;;5033574;28;20061;-77
2022/11/26 06:57:35;;;;;;;44.58;12.55;;;;;;;;;;5034334;28;20050;-75
2022/11/26 07:00:04;;;;;;;55.22;12.85;;;;;;;;;;5043797;28;20054;-76
2022/11/26 07:02:32;;;;;;;47.67;13.07;;;;;;;;;;5036915;28;20054;-76
2022/11/26 07:04:59;;;;;;;51.10;14.30;;;;;;;;;;5041015;28;20049;-76
2022/11/26 07:07:26;;;;;;;56.92;13.38;;;;;;;;;;5044483;28;20050;-76
2022/11/26 07:09:53;;;;;;;45.95;13.63;;;;;;;;;;5043224;28;20149;-76
2022/11/26 07:12:21;;;;;;;44.58;12.88;;;;;;;;;;5034621;28;20046;-76
2022/11/26 07:14:48;;;;;;;50.58;12.45;;;;;;;;;;5044223;28;20054;-76
2022/11/26 07:17:15;;;;;;;65.25;13.35;;;;;;;;;;5047980;28;20818;-75
2022/11/26 07:19:43;;;;;;;55.92;13.18;;;;;;;;;;5060304;28;20049;-76
2022/11/26 07:22:10;;;;;;;57.63;13.43;;;;;;;;;;5046224;28;20140;-76
2022/11/26 07:24:37;;;;;;;43.80;12.52;;;;;;;;;;5042112;28;20049;-76
2022/11/26 07:27:05;;;;;;;45.00;12.00;;;;;;;;;;5047339;28;20549;-76
2022/11/26 07:29:33;;;;;;;56.08;12.93;;;;;;;;;;5046238;28;20059;-75
2022/11/26 07:32:00;;;;;;;67.30;13.73;;;;;;;;;;5043143;28;20045;-76
2022/11/26 07:34:27;;;;;;;56.10;12.40;;;;;;;;;;5040656;28;20077;-76
2022/11/26 07:36:55;;;;;;;54.28;12.75;;;;;;;;;;5038968;28;20058;-77
2022/11/26 07:39:24;;;;;;;52.38;13.02;;;;;;;;;;5041101;28;20053;-76
2022/11/26 07:41:51;;;;;;;54.03;12.23;;;;;;;;;;5041014;28;20052;-76
2022/11/26 07:44:19;;;;;;;58.97;14.13;;;;;;;;;;5044607;28;20049;-76
2022/11/26 07:46:47;;;;;;;41.83;12.77;;;;;;;;;;5061983;28;20054;-75
2022/11/26 07:49:14;;;;;;;59.17;12.63;;;;;;;;;;5037089;28;20053;-76
2022/11/26 07:51:42;;;;;;;66.15;13.25;;;;;;;;;;5040243;28;20057;-77
2022/11/26 07:54:12;;;;;;;48.38;13.20;;;;;;;;;;5046742;28;20054;-76
2022/11/26 07:56:40;;;;;;;50.20;12.85;;;;;;;;;;5041530;28;20100;-76
2022/11/26 07:59:07;;;;;;;43.97;12.55;;;;;;;;;;5042385;28;20050;-76
2022/11/26 08:01:36;;;;;;;59.13;15.02;;;;;;;;;;5060393;28;20104;-76
2022/11/26 08:04:05;;;;;;;65.57;13.60;;;;;;;;;;5046598;28;20049;-76
2022/11/26 08:06:32;;;;;;;50.55;13.70;;;;;;;;;;5043641;28;20054;-76
2022/11/26 08:09:01;;;;;;;60.20;15.02;;;;;;;;;;5040953;28;20140;-76
2022/11/26 08:11:30;;;;;;;63.63;14.50;;;;;;;;;;5039473;28;20078;-77
2022/11/26 08:13:59;;;;;;;67.22;14.52;;;;;;;;;;5037383;28;20510;-76
2022/11/26 08:16:27;;;;;;;60.50;14.35;;;;;;;;;;5043417;28;20049;-76
2022/11/26 08:18:59;;;;;;;57.70;14.15;;;;;;;;;;5043557;28;20049;-78
2022/11/26 08:21:27;;;;;;;58.65;14.10;;;;;;;;;;5039429;28;20053;-76
2022/11/26 08:23:55;;;;;;;59.33;13.68;;;;;;;;;;5039797;28;20136;-76
2022/11/26 08:26:24;;;;;;;53.08;14.18;;;;;;;;;;5043751;28;20057;-76
2022/11/26 08:29:02;;;;;;;52.72;14.20;;;;;;;;;;5046062;28;20529;-76
2022/11/26 08:31:29;;;;;;;42.92;12.55;;;;;;;;;;5036835;28;20523;-76
2022/11/26 08:33:58;;;;;;;47.90;13.07;;;;;;;;;;5041887;28;20191;-76
2022/11/26 08:36:28;;;;;;;51.88;13.02;;;;;;;;;;5043462;28;20052;-76
2022/11/26 08:38:55;;;;;;;56.15;12.77;;;;;;;;;;5036407;28;20051;-77
2022/11/26 08:41:22;;;;;;;64.85;13.27;;;;;;;;;;5047606;28;20495;-76
2022/11/26 08:43:50;;;;;;;46.17;11.32;;;;;;;;;;5043797;28;20111;-77
2022/11/26 08:46:35;;;;;;;46.65;11.05;;;;;;;;;;5039775;28;20049;-76
2022/11/26 08:49:04;;;;;;;55.78;11.98;;;;;;;;;;5043366;28;20100;-76
2022/11/26 08:51:32;;;;;;;48.65;11.60;;;;;;;;;;5045596;28;20100;-76
2022/11/26 08:53:59;;;;;;;45.55;12.70;;;;;;;;;;5033966;28;20140;-76
2022/11/26 08:56:27;;;;;;;49.33;11.48;;;;;;;;;;5041119;28;20059;-76
2022/11/26 08:58:54;;;;;;;44.42;11.05;;;;;;;;;;5039352;28;21064;-76
2022/11/26 09:01:24;;;;;;;47.50;10.60;;;;;;;;;;5037214;28;20056;-76
2022/11/26 09:03:52;;;;;;;53.83;11.85;;;;;;;;;;5049145;28;20080;-76
2022/11/26 09:06:20;;;;;;;51.10;10.98;;;;;;;;;;5038324;28;20053;-76
2022/11/26 09:11:34;;;;;;;54.85;11.75;;;;;;;;;;5044112;28;20089;-76
2022/11/26 09:14:02;;;;;;;46.95;11.25;;;;;;;;;;5041311;28;20049;-76
2022/11/26 09:16:29;;;;;;;38.25;10.38;;;;;;;;;;5037810;28;20453;-76
2022/11/26 09:18:59;;;;;;;46.72;9.82;;;;;;;;;;5038367;28;20112;-76
2022/11/26 09:21:26;;;;;;;39.63;10.30;;;;;;;;;;5036217;28;20049;-76
2022/11/26 09:23:54;;;;;;;37.70;11.00;;;;;;;;;;5045629;28;20519;-76
2022/11/26 09:26:23;;;;;;;45.13;9.80;;;;;;;;;;5035584;28;20053;-76
2022/11/26 09:28:52;;;;;;;41.58;10.30;;;;;;;;;;5037135;28;20107;-77
2022/11/26 09:31:23;;;;;;;42.67;9.35;;;;;;;;;;5042267;28;20087;-76
2022/11/26 09:33:51;;;;;;;32.22;9.45;;;;;;;;;;5044735;28;20164;-76
2022/11/26 09:36:18;;;;;;;40.10;9.73;;;;;;;;;;5037207;28;20050;-76
2022/11/26 09:38:45;;;;;;;55.03;10.50;;;;;;;;;;5040047;28;20091;-76
2022/11/26 09:41:22;;;;;;;35.03;9.27;;;;;;;;;;5041439;28;20055;-76
2022/11/26 09:44:11;;;;;;;39.20;9.88;;;;;;;;;;5041793;28;20050;-76
2022/11/26 09:46:55;;;;;;;49.92;10.13;;;;;;;;;;5044889;28;20055;-76
2022/11/26 09:49:52;;;;;;;37.67;9.13;;;;;;;;;;5039213;28;20204;-76
2022/11/26 09:52:21;;;;;;;32.15;8.80;;;;;;;;;;5045114;28;20332;-76
2022/11/26 09:54:50;;;;;;;38.15;9.23;;;;;;;;;;5039036;28;20041;-76
2022/11/26 09:57:27;;;;;;;48.35;9.52;;;;;;;;;;5042670;28;20051;-76
2022/11/26 09:59:55;;;;;;;42.17;9.15;;;;;;;;;;5042125;28;20626;-76
2022/11/26 10:02:24;;;;;;;46.13;10.18;;;;;;;;;;5041311;28;20052;-76
2022/11/26 10:04:52;;;;;;;30.13;8.98;;;;;;;;;;5039652;28;20129;-76
2022/11/26 10:07:26;;;;;;;27.67;8.95;;;;;;;;;;5058491;28;20490;-76
2022/11/26 10:09:54;;;;;;;33.42;10.55;;;;;;;;;;5041468;28;20057;-76
2022/11/26 10:12:26;;;;;;;41.38;9.13;;;;;;;;;;5036044;28;20156;-77
2022/11/26 10:15:00;;;;;;;32.97;9.48;;;;;;;;;;5036234;28;20053;-76
2022/11/26 10:17:47;;;;;;;39.53;9.27;;;;;;;;;;5044636;28;20487;-76
2022/11/26 10:20:14;;;;;;;33.30;8.73;;;;;;;;;;5031569;28;20495;-76
2022/11/26 10:22:49;;;;;;;33.30;9.32;;;;;;;;;;5039477;28;20128;-76
2022/11/26 10:25:25;;;;;;;31.67;9.50;;;;;;;;;;5042378;28;20091;-76
2022/11/26 10:27:55;;;;;;;42.22;10.95;;;;;;;;;;5044760;28;20049;-76
2022/11/26 10:30:24;;;;;;;46.10;10.70;;;;;;;;;;5043328;28;20061;-75
2022/11/26 10:32:52;;;;;;;37.15;9.18;;;;;;;;;;5040635;28;20076;-76
2022/11/26 10:35:29;;;;;;;40.22;9.45;;;;;;;;;;5042418;28;20062;-76
2022/11/26 10:37:56;;;;;;;33.20;9.30;;;;;;;;;;5043198;28;20061;-76
2022/11/26 10:40:25;;;;;;;41.58;8.75;;;;;;;;;;5035374;28;20542;-76
2022/11/26 10:43:11;;;;;;;31.98;8.90;;;;;;;;;;5032696;28;20637;-76
2022/11/26 10:45:38;;;;;;;35.67;9.10;;;;;;;;;;5039799;28;20080;-76
2022/11/26 10:48:19;;;;;;;37.80;9.60;;;;;;;;;;5038314;28;20516;-76
2022/11/26 10:51:10;;;;;;;33.33;9.73;;;;;;;;;;5042740;28;20053;-76
2022/11/26 10:53:55;;;;;;;28.92;8.13;;;;;;;;;;5043174;28;20136;-76
2022/11/26 10:56:27;;;;;;;37.20;8.82;;;;;;;;;;5044107;28;20049;-76
2022/11/26 10:58:58;;;;;;;28.90;7.90;;;;;;;;;;5043508;28;20053;-76
2022/11/26 11:01:25;;;;;;;37.05;8.80;;;;;;;;;;5035778;28;20327;-76
2022/11/26 11:03:54;;;;;;;44.42;7.88;;;;;;;;;;5044075;28;20068;-76
2022/11/26 11:06:40;;;;;;;29.48;8.00;;;;;;;;;;5043939;28;20060;-76
2022/11/26 11:09:23;;;;;;;30.98;8.30;;;;;;;;;;5044460;28;20147;-76
2022/11/26 11:12:09;;;;;;;30.17;7.93;;;;;;;;;;5042243;28;20057;-76
2022/11/26 11:14:39;;;;;;;37.85;8.32;;;;;;;;;;5041768;28;20053;-76
2022/11/26 11:17:23;;;;;;;26.42;7.47;;;;;;;;;;5041454;28;20053;-76
2022/11/26 11:19:51;;;;;;;33.78;7.57;;;;;;;;;;5042148;28;20054;-76
2022/11/26 11:22:21;;;;;;;28.08;6.82;;;;;;;;;;5040061;28;20140;-76
2022/11/26 11:24:48;;;;;;;23.35;6.45;;;;;;;;;;5042764;28;20053;-76
2022/11/26 11:27:26;;;;;;;26.73;6.40;;;;;;;;;;5037985;28;20054;-76
2022/11/26 11:29:59;;;;;;;36.35;7.15;;;;;;;;;;5040853;28;20054;-76
2022/11/26 11:32:41;;;;;;;23.40;6.80;;;;;;;;;;5038957;28;20145;-76
2022/11/26 11:35:29;;;;;;;30.35;6.93;;;;;;;;;;5039715;28;20050;-75
2022/11/26 11:37:57;;;;;;;24.25;6.38;;;;;;;;;;5037415;28;20075;-76
2022/11/26 11:40:27;;;;;;;26.63;6.43;;;;;;;;;;5040599;28;20057;-76
2022/11/26 11:42:59;;;;;;;29.00;6.40;;;;;;;;;;5038613;28;20050;-75
2022/11/26 11:45:41;;;;;;;18.57;5.57;;;;;;;;;;5043220;28;20060;-76
2022/11/26 11:48:27;;;;;;;26.50;5.85;;;;;;;;;;5037314;28;20531;-76
2022/11/26 11:51:03;;;;;;;13.05;5.20;;;;;;;;;;5035677;28;20061;-76
2022/11/26 11:53:30;;;;;;;22.23;5.50;;;;;;;;;;5039029;28;20049;-76
2022/11/26 11:55:58;;;;;;;20.90;5.93;;;;;;;;;;5041607;28;20050;-76
2022/11/26 11:58:44;;;;;;;19.70;5.88;;;;;;;;;;5048484;28;20147;-76
2022/11/26 12:01:14;;;;;;;23.42;5.63;;;;;;;;;;5036607;28;20121;-76
2022/11/26 12:03:50;;;;;;;20.90;5.88;;;;;;;;;;5042683;28;20054;-76
2022/11/26 12:06:26;;;;;;;25.55;5.95;;;;;;;;;;5040482;28;20058;-76
2022/11/26 12:09:12;;;;;;;18.73;5.35;;;;;;;;;;5045184;28;20141;-76
2022/11/26 12:11:58;;;;;;;18.20;5.60;;;;;;;;;;5041031;28;20054;-76
2022/11/26 12:14:29;;;;;;;22.88;5.90;;;;;;;;;;5044355;28;20053;-76
2022/11/26 12:16:59;;;;;;;18.60;5.68;;;;;;;;;;5056432;28;20137;-76
2022/11/26 12:19:33;;;;;;;21.67;5.65;;;;;;;;;;5037809;28;20076;-76
2022/11/26 12:22:07;;;;;;;18.40;6.05;;;;;;;;;;5035332;28;20037;-75
2022/11/26 12:24:47;;;;;;;24.23;6.80;;;;;;;;;;5038128;28;20061;-76
2022/11/26 12:27:22;;;;;;;23.98;5.63;;;;;;;;;;5055302;28;20064;-76
2022/11/26 12:29:53;;;;;;;21.90;5.70;;;;;;;;;;5039192;28;20064;-76
2022/11/26 12:32:39;;;;;;;24.85;6.47;;;;;;;;;;5043714;28;20484;-76
2022/11/26 12:35:11;;;;;;;17.60;5.22;;;;;;;;;;5042455;28;20082;-76
2022/11/26 12:37:40;;;;;;;20.20;5.05;;;;;;;;;;5041364;28;20066;-76
2022/11/26 12:40:11;;;;;;;15.50;5.55;;;;;;;;;;5041930;28;20053;-76
2022/11/26 12:42:58;;;;;;;19.65;4.68;;;;;;;;;;5040697;28;20053;-76
2022/11/26 12:45:25;;;;;;;25.85;6.47;;;;;;;;;;5044188;28;20053;-75
2022/11/26 12:47:58;;;;;;;20.42;5.13;;;;;;;;;;5035495;28;20854;-76
2022/11/26 12:50:41;;;;;;;12.88;5.05;;;;;;;;;;5042387;28;20796;-76
2022/11/26 12:53:23;;;;;;;22.33;4.88;;;;;;;;;;5038142;28;20495;-76
2022/11/26 12:55:59;;;;;;;26.13;5.05;;;;;;;;;;5039777;28;20085;-76
2022/11/26 12:58:26;;;;;;;19.00;5.20;;;;;;;;;;5039028;28;20057;-76
2022/11/26 13:00:55;;;;;;;20.42;4.50;;;;;;;;;;5039397;28;20117;-76
2022/11/26 13:03:32;;;;;;;15.85;4.38;;;;;;;;;;5044126;28;20050;-76
2022/11/26 13:06:14;;;;;;;17.90;4.97;;;;;;;;;;5041901;28;20051;-76
2022/11/26 13:08:51;;;;;;;19.13;5.20;;;;;;;;;;5041729;28;20136;-75
2022/11/26 13:11:37;;;;;;;16.17;4.63;;;;;;;;;;5040423;28;20505;-76
2022/11/26 13:14:10;;;;;;;24.25;5.20;;;;;;;;;;5041866;28;20057;-76
2022/11/26 13:16:40;;;;;;;21.48;4.22;;;;;;;;;;5041089;28;21077;-76
2022/11/26 13:19:12;;;;;;;20.77;4.82;;;;;;;;;;5037292;28;20826;-75
2022/11/26 13:21:40;;;;;;;23.07;5.40;;;;;;;;;;5043671;28;20064;-76
2022/11/26 13:24:27;;;;;;;15.65;4.78;;;;;;;;;;5040215;28;20269;-76
2022/11/26 13:27:14;;;;;;;16.42;4.88;;;;;;;;;;5034027;28;20049;-76
2022/11/26 13:29:56;;;;;;;20.63;5.07;;;;;;;;;;5042202;28;20052;-76
2022/11/26 13:32:33;;;;;;;20.23;5.07;;;;;;;;;;5038374;28;20054;-76
2022/11/26 13:35:13;;;;;;;20.90;5.15;;;;;;;;;;5041314;28;20054;-76
2022/11/26 13:37:41;;;;;;;15.00;3.90;;;;;;;;;;5042524;28;20057;-76
2022/11/26 13:40:17;;;;;;;21.85;4.75;;;;;;;;;;5032624;28;20057;-76
2022/11/26 13:42:47;;;;;;;20.42;4.25;;;;;;;;;;5039093;28;20060;-76
2022/11/26 13:45:30;;;;;;;19.50;4.53;;;;;;;;;;5040131;28;20045;-76
2022/11/26 13:48:07;;;;;;;26.17;4.53;;;;;;;;;;5034380;28;20057;-75
2022/11/26 13:50:41;;;;;;;19.90;4.55;;;;;;;;;;5036518;28;20101;-75
2022/11/26 13:53:15;;;;;;;16.52;4.53;;;;;;;;;;5036658;28;20064;-76
2022/11/26 13:55:46;;;;;;;26.60;5.60;;;;;;;;;;5038677;28;20136;-76
2022/11/26 13:58:17;;;;;;;26.20;4.55;;;;;;;;;;5041031;28;20061;-76
2022/11/26 14:00:44;;;;;;;17.48;4.45;;;;;;;;;;5041529;28;20526;-76
2022/11/26 14:03:31;;;;;;;22.02;4.68;;;;;;;;;;5037082;28;20050;-77
2022/11/26 14:05:59;;;;;;;19.75;4.75;;;;;;;;;;5038922;28;20056;-76
2022/11/26 14:08:36;;;;;;;17.27;5.00;;;;;;;;;;5040300;28;20566;-76
2022/11/26 14:11:04;;;;;;;21.63;4.85;;;;;;;;;;5035025;28;20060;-75
2022/11/26 14:13:31;;;;;;;16.88;4.70;;;;;;;;;;5034655;28;20056;-76
2022/11/26 14:15:58;;;;;;;21.50;4.50;;;;;;;;;;5038870;28;20050;-76
2022/11/26 14:18:51;;;;;;;25.52;5.13;;;;;;;;;;5038080;28;20049;-75
2022/11/26 14:21:20;;;;;;;20.00;4.82;;;;;;;;;;5030709;28;20053;-76
2022/11/26 14:23:48;;;;;;;16.42;4.18;;;;;;;;;;5037169;28;20053;-76
2022/11/26 14:26:36;;;;;;;21.83;4.45;;;;;;;;;;5040461;28;20054;-75
2022/11/26 14:29:06;;;;;;;26.83;4.50;;;;;;;;;;5032212;28;20057;-76
2022/11/26 14:31:34;;;;;;;28.10;5.28;;;;;;;;;;5040846;28;20152;-76
2022/11/26 14:34:08;;;;;;;20.88;4.70;;;;;;;;;;5041910;28;20054;-76
2022/11/26 14:36:36;;;;;;;18.15;4.30;;;;;;;;;;5039829;28;20045;-75
2022/11/26 14:39:09;;;;;;;19.63;5.10;;;;;;;;;;5042700;28;20205;-75
2022/11/26 14:41:43;;;;;;;20.13;4.55;;;;;;;;;;5056653;28;20046;-75
2022/11/26 14:44:11;;;;;;;18.30;4.28;;;;;;;;;;5043531;28;20877;-75
2022/11/26 14:46:40;;;;;;;23.35;4.75;;;;;;;;;;5038738;28;20060;-75
2022/11/26 14:49:28;;;;;;;23.77;4.88;;;;;;;;;;5036582;28;20060;-75
2022/11/26 14:51:57;;;;;;;18.23;4.28;;;;;;;;;;5039956;28;20084;-76